»·PEaware :: N281VT KAVX-KSAN

N281VT :: KAVX-KSAN

FLIGHT INFORMATION

Flight Status: Arrived
Operator: Privately registered:
United States
More flights under this callsign
Pilot: Gopalakrishna Pillai Sulekha S. (22834)
Aircraft: Unknown
(EPIC)
More flights by this aircraft type
Origin: KAVX Catalina
United States
Destination: KSAN San Diego Intl-Lindbergh
United States
More flights between these airports :: More routes between these airports
Route: SXC V208 LAX118 CARDI MZB320 MZB
File this flight plan on PilotEdge
Remarks: I8 RATING
Altitude:
(Current/Filed)
9,000ft
Speed:
(Current/Filed)
190kts
Departed: 21-Feb-19 08:49 PM
Arrived: 21-Feb-19 09:32 PM
Distance/Time
Traveled:
74nm/0:43
Distance/Time
To Go:
Arrived

Flight Plot

Page will automatically refresh every two minutes.


Map Options




Map Legend


Flown Route
Filed Route
Departure Airport
Arrival Airport
Navaid (VOR, NDB)
Fix

Horizontal Profiles

Position Reports

Time Latitude Longitude Heading Altitude Ground
Speed
21-Feb-19 20:31 33.403461 -118.415156 316 1546ft 0kts
21-Feb-19 20:32 33.403461 -118.415156 316 1546ft 0kts
21-Feb-19 20:33 33.403461 -118.415156 317 1546ft 0kts
21-Feb-19 20:34 33.403461 -118.415156 317 1546ft 0kts
21-Feb-19 20:35 33.403461 -118.415156 317 1546ft 0kts
21-Feb-19 20:36 33.403461 -118.415156 317 1546ft 0kts
21-Feb-19 20:37 33.403461 -118.415156 317 1546ft 0kts
21-Feb-19 20:38 33.403461 -118.415156 317 1546ft 0kts
21-Feb-19 20:39 33.403461 -118.415156 317 1546ft 0kts
21-Feb-19 20:40 33.403461 -118.415156 317 1546ft 0kts
21-Feb-19 20:41 33.403461 -118.415156 317 1546ft 0kts
21-Feb-19 20:42 33.403461 -118.415156 317 1546ft 0kts
21-Feb-19 20:43 33.403461 -118.415156 317 1546ft 0kts
21-Feb-19 20:44 33.403461 -118.415156 317 1546ft 0kts
21-Feb-19 20:45 33.403461 -118.415156 317 1546ft 0kts
21-Feb-19 20:46 33.404029 -118.415049 10 1545ft 18kts
21-Feb-19 20:47 33.407465 -118.411471 282 1499ft 5kts
21-Feb-19 20:48 33.384835 -118.443984 217 2880ft 216kts
21-Feb-19 20:49 33.342859 -118.421537 132 4154ft 152kts
21-Feb-19 20:50 33.315914 -118.390038 130 5004ft 141kts
21-Feb-19 20:51 33.310301 -118.347577 58 6521ft 143kts
21-Feb-19 20:52 33.327903 -118.304491 58 8519ft 145kts
21-Feb-19 20:53 33.348970 -118.253710 60 9005ft 206kts
21-Feb-19 20:54 33.343173 -118.196157 95 8999ft 159kts
21-Feb-19 20:55 33.336517 -118.143099 93 9006ft 174kts
21-Feb-19 20:56 33.328598 -118.079586 94 9000ft 200kts
21-Feb-19 20:57 33.320387 -118.015314 94 9017ft 191kts
21-Feb-19 20:58 33.312425 -117.953227 94 9000ft 188kts
21-Feb-19 20:59 33.304463 -117.891439 94 9019ft 186kts
21-Feb-19 21:00 33.296374 -117.828806 94 9021ft 199kts
21-Feb-19 21:01 33.287923 -117.763854 94 9019ft 198kts
21-Feb-19 21:02 33.278354 -117.697992 96 9019ft 201kts
21-Feb-19 21:03 33.268402 -117.631956 96 9003ft 200kts
21-Feb-19 21:04 33.255948 -117.570938 129 9000ft 187kts
21-Feb-19 21:05 33.220889 -117.527262 133 9019ft 178kts
21-Feb-19 21:06 33.185390 -117.482968 134 9024ft 202kts
21-Feb-19 21:07 33.144232 -117.431601 134 9013ft 213kts
21-Feb-19 21:08 33.096883 -117.399711 157 9009ft 187kts
21-Feb-19 21:09 33.051407 -117.374559 157 9010ft 173kts
21-Feb-19 21:10 33.009024 -117.351036 157 9010ft 164kts
21-Feb-19 21:11 32.968072 -117.328315 158 9008ft 158kts
21-Feb-19 21:12 32.928573 -117.306420 158 8999ft 155kts
21-Feb-19 21:13 32.889840 -117.284465 157 8998ft 153kts
21-Feb-19 21:14 32.866956 -117.239358 111 7881ft 183kts
21-Feb-19 21:15 32.848369 -117.180951 111 6044ft 190kts
21-Feb-19 21:16 32.831466 -117.125192 111 5013ft 168kts
21-Feb-19 21:17 32.816327 -117.073229 111 5008ft 164kts
21-Feb-19 21:18 32.801774 -117.022246 111 5017ft 161kts
21-Feb-19 21:19 32.787024 -116.972243 111 5018ft 160kts
21-Feb-19 21:20 32.771897 -116.922468 111 5018ft 160kts
21-Feb-19 21:21 32.756151 -116.874105 129 5012ft 149kts
21-Feb-19 21:22 32.718650 -116.869600 190 5016ft 138kts
21-Feb-19 21:23 32.680046 -116.875762 225 4197ft 133kts
21-Feb-19 21:24 32.667493 -116.915308 266 4010ft 124kts
21-Feb-19 21:25 32.676095 -116.954056 288 3686ft 132kts
21-Feb-19 21:26 32.686078 -116.994736 289 3110ft 139kts
21-Feb-19 21:27 32.695960 -117.035276 291 2710ft 101kts
21-Feb-19 21:28 32.707194 -117.081242 288 2037ft 157kts
21-Feb-19 21:29 32.718900 -117.129329 284 1174ft 131kts
21-Feb-19 21:30 32.727883 -117.166791 284 335ft 117kts
21-Feb-19 21:31 32.733753 -117.188135 5 17ft 0kts
21-Feb-19 21:32 32.734622 -117.186355 13 17ft 0kts

Navigation Log

Ident Type
Flight plan parsing failed, navigation log unavailable